Time;durP1;ratioP1;P1;durP2;ratioP2;P2;SDS_P1;SDS_P2;PMS_P1;PMS_P2;Temp;Humidity;BMP_temperature;BMP_pressure;BME280_temperature;BME280_humidity;BME280_pressure;Samples;Min_cycle;Max_cycle;Signal;HPM_P1;HPM_P2
2022/08/05 00:00:08;;;;;;;5.37;5.07;;;26.60;1.00;;;;;;5116798;27;24496;-78
2022/08/05 00:02:35;;;;;;;5.67;5.37;;;26.60;1.00;;;;;;5128686;27;20490;-85
2022/08/05 00:05:07;;;;;;;6.43;5.93;;;26.60;1.00;;;;;;5132271;27;21262;-81
2022/08/05 00:07:36;;;;;;;6.73;6.13;;;26.60;1.00;;;;;;5130740;27;20456;-80
2022/08/05 00:10:05;;;;;;;6.47;6.00;;;26.60;1.00;;;;;;5131222;27;20532;-86
2022/08/05 00:12:38;;;;;;;6.20;5.80;;;26.60;1.00;;;;;;5131831;27;20409;-79
2022/08/05 00:15:06;;;;;;;6.23;5.73;;;26.60;1.00;;;;;;5125539;27;20488;-82
2022/08/05 00:17:33;;;;;;;6.30;5.90;;;26.60;1.00;;;;;;5130256;27;20558;-83
2022/08/05 00:20:06;;;;;;;6.00;5.50;;;26.40;1.00;;;;;;5122811;27;20555;-79
2022/08/05 00:22:33;;;;;;;6.17;5.77;;;26.40;1.00;;;;;;5125428;27;20527;-80
2022/08/05 00:25:04;;;;;;;6.83;6.10;;;26.40;1.00;;;;;;5125912;27;20834;-82
2022/08/05 00:27:31;;;;;;;7.00;6.50;;;26.30;1.00;;;;;;5127233;27;21054;-85
2022/08/05 00:30:01;;;;;;;7.10;6.50;;;26.30;1.00;;;;;;5123735;27;20541;-85
2022/08/05 00:32:28;;;;;;;6.20;5.80;;;26.20;1.00;;;;;;5131701;27;20436;-84
2022/08/05 00:34:57;;;;;;;6.77;6.27;;;26.20;1.00;;;;;;5129000;27;21167;-86
2022/08/05 00:37:26;;;;;;;6.80;6.37;;;26.10;1.00;;;;;;5123721;27;20508;-78
2022/08/05 00:39:53;;;;;;;7.23;6.73;;;26.00;1.00;;;;;;5124541;27;20455;-81
2022/08/05 00:42:32;;;;;;;6.93;6.33;;;26.00;1.00;;;;;;5128932;27;20502;-82
2022/08/05 00:45:08;;;;;;;6.57;6.07;;;26.00;1.00;;;;;;5132557;27;20900;-85
2022/08/05 00:47:37;;;;;;;6.57;6.17;;;25.90;1.00;;;;;;5129732;27;20444;-83
2022/08/05 00:50:04;;;;;;;7.27;6.67;;;25.90;1.00;;;;;;5130386;27;20429;-84
2022/08/05 00:52:36;;;;;;;6.87;6.20;;;25.90;1.00;;;;;;5129159;27;20612;-85
2022/08/05 00:55:05;;;;;;;8.60;7.57;;;25.90;1.00;;;;;;5122343;27;20428;-80
2022/08/05 00:57:32;;;;;;;6.90;6.40;;;25.80;1.00;;;;;;5126272;27;20502;-84
2022/08/05 01:00:05;;;;;;;7.63;7.03;;;25.80;1.00;;;;;;5130588;27;20545;-77
2022/08/05 01:02:32;;;;;;;6.30;5.90;;;25.70;1.00;;;;;;5130218;27;20546;-80
2022/08/05 01:04:59;;;;;;;7.50;7.00;;;25.70;1.00;;;;;;5131815;27;20460;-85
2022/08/05 01:07:26;;;;;;;7.00;6.40;;;25.70;1.00;;;;;;5133148;27;20455;-82
2022/08/05 01:09:53;;;;;;;6.77;6.10;;;25.70;1.00;;;;;;5133666;27;20445;-83
2022/08/05 01:12:26;;;;;;;6.93;6.43;;;25.60;1.00;;;;;;5129482;27;20461;-80
2022/08/05 01:14:59;;;;;;;8.53;7.67;;;25.50;1.00;;;;;;5129451;27;20465;-85
2022/08/05 01:17:34;;;;;;;7.83;7.07;;;25.50;1.00;;;;;;5129968;27;20464;-80
2022/08/05 01:20:16;;;;;;;8.27;7.67;;;25.50;1.00;;;;;;5130699;27;20417;-85
2022/08/05 01:23:03;;;;;;;7.20;6.70;;;25.50;1.00;;;;;;5117675;27;20467;-84
2022/08/05 01:25:53;;;;;;;7.97;7.27;;;25.40;1.00;;;;;;5132325;27;21272;-84
2022/08/05 01:28:33;;;;;;;7.37;6.77;;;25.30;1.00;;;;;;5130808;27;20581;-78
2022/08/05 01:31:07;;;;;;;7.37;6.77;;;25.30;1.00;;;;;;5128105;27;21037;-80
2022/08/05 01:33:45;;;;;;;7.53;6.83;;;25.30;1.00;;;;;;5125947;27;20421;-80
2022/08/05 01:36:16;;;;;;;7.00;6.50;;;25.20;1.00;;;;;;5120280;27;20978;-80
2022/08/05 01:38:48;;;;;;;8.13;7.37;;;25.20;1.00;;;;;;5142761;27;20430;-82
2022/08/05 01:41:18;;;;;;;7.70;7.03;;;25.10;1.00;;;;;;5131148;27;20457;-84
2022/08/05 01:43:49;;;;;;;7.40;6.80;;;25.10;1.00;;;;;;5128948;27;20423;-79
2022/08/05 01:46:17;;;;;;;8.03;7.30;;;25.10;1.00;;;;;;5129009;27;20440;-84
2022/08/05 01:48:47;;;;;;;7.30;6.83;;;25.00;1.00;;;;;;5132001;27;20412;-83
2022/08/05 01:51:18;;;;;;;7.90;7.20;;;25.00;1.00;;;;;;5130260;27;20457;-79
2022/08/05 01:53:47;;;;;;;7.70;7.10;;;24.90;1.00;;;;;;5134753;27;20443;-83
2022/08/05 01:56:17;;;;;;;7.57;7.03;;;24.90;1.00;;;;;;5124869;27;20485;-79
2022/08/05 01:58:47;;;;;;;7.63;7.07;;;24.90;1.00;;;;;;5133354;27;22537;-81
2022/08/05 02:01:18;;;;;;;7.57;7.07;;;24.90;1.00;;;;;;5121534;27;20453;-80
2022/08/05 02:03:56;;;;;;;7.20;6.70;;;24.80;1.00;;;;;;5127412;27;20460;-80
2022/08/05 02:06:28;;;;;;;8.50;7.70;;;24.80;1.00;;;;;;5129036;27;20544;-78
2022/08/05 02:08:57;;;;;;;8.20;7.60;;;24.80;1.00;;;;;;5126700;27;20496;-83
2022/08/05 02:11:28;;;;;;;7.80;7.20;;;24.80;1.00;;;;;;5131826;27;20472;-79
2022/08/05 02:14:05;;;;;;;7.73;7.03;;;24.70;1.00;;;;;;5120256;27;20429;-81
2022/08/05 02:16:45;;;;;;;7.33;6.73;;;24.60;1.00;;;;;;5129354;27;20412;-83
2022/08/05 02:19:18;;;;;;;8.23;7.43;;;24.70;1.00;;;;;;5132344;27;20564;-84
2022/08/05 02:21:58;;;;;;;8.20;7.70;;;24.60;1.00;;;;;;5132352;27;20444;-82
2022/08/05 02:24:32;;;;;;;8.20;7.70;;;24.60;1.00;;;;;;5119810;27;20425;-81
2022/08/05 02:27:06;;;;;;;8.40;7.70;;;24.60;1.00;;;;;;5128406;27;20919;-84
2022/08/05 02:29:35;;;;;;;8.40;7.80;;;24.60;1.00;;;;;;5129447;27;20496;-77
2022/08/05 02:32:09;;;;;;;8.60;7.90;;;24.60;1.00;;;;;;5128823;27;20482;-82
2022/08/05 02:34:37;;;;;;;8.27;7.67;;;24.60;1.00;;;;;;5128547;27;20461;-78
2022/08/05 02:37:09;;;;;;;8.10;7.50;;;24.50;1.00;;;;;;5127354;27;20478;-83
2022/08/05 02:39:38;;;;;;;8.80;8.20;;;24.50;1.00;;;;;;5129753;27;20466;-83
2022/08/05 02:42:08;;;;;;;8.57;8.00;;;24.40;1.00;;;;;;5129781;27;20421;-78
2022/08/05 02:44:39;;;;;;;9.20;8.50;;;24.30;1.00;;;;;;5131184;27;20853;-80
2022/08/05 02:47:09;;;;;;;8.33;7.73;;;24.30;1.00;;;;;;5126779;27;20413;-79
2022/08/05 02:49:38;;;;;;;8.90;8.20;;;24.30;1.00;;;;;;5129750;27;21000;-78
2022/08/05 02:52:09;;;;;;;9.37;8.47;;;24.30;1.00;;;;;;5128437;27;20426;-80
2022/08/05 02:54:38;;;;;;;9.50;8.80;;;24.20;1.00;;;;;;5131672;27;20451;-79
2022/08/05 02:57:13;;;;;;;9.33;8.30;;;24.30;1.00;;;;;;5133140;27;20493;-79
2022/08/05 02:59:48;;;;;;;8.87;8.07;;;24.20;1.00;;;;;;5132355;27;20923;-85
2022/08/05 03:02:19;;;;;;;8.43;7.73;;;24.20;1.00;;;;;;5128011;27;20845;-79
2022/08/05 03:04:50;;;;;;;9.00;8.40;;;24.20;1.00;;;;;;5132080;27;20489;-83
2022/08/05 03:07:19;;;;;;;8.70;8.10;;;24.20;1.00;;;;;;5130598;27;20442;-86
2022/08/05 03:09:47;;;;;;;11.77;8.63;;;24.20;1.00;;;;;;5131865;27;20492;-85
2022/08/05 03:12:29;;;;;;;9.47;8.70;;;24.10;1.00;;;;;;5126459;27;20455;-84
2022/08/05 03:14:56;;;;;;;8.57;7.77;;;24.10;1.00;;;;;;5130774;27;22080;-80
2022/08/05 03:17:31;;;;;;;8.03;7.50;;;24.00;1.00;;;;;;5125007;27;20604;-79
2022/08/05 03:19:58;;;;;;;8.37;7.77;;;24.00;1.00;;;;;;5125361;27;20558;-78
2022/08/05 03:22:29;;;;;;;8.83;7.93;;;23.90;1.00;;;;;;5126642;27;20606;-79
2022/08/05 03:24:57;;;;;;;10.00;8.10;;;23.90;1.00;;;;;;5130587;27;21221;-79
2022/08/05 03:27:27;;;;;;;8.23;7.57;;;23.90;1.00;;;;;;5126474;27;20481;-77
2022/08/05 03:29:54;;;;;;;8.53;7.93;;;23.90;1.00;;;;;;5128875;27;20472;-77
2022/08/05 03:32:25;;;;;;;8.60;7.80;;;23.90;1.00;;;;;;5129356;27;20956;-84
2022/08/05 03:34:54;;;;;;;9.23;8.43;;;23.80;1.00;;;;;;5126646;27;20456;-84
2022/08/05 03:37:23;;;;;;;9.20;8.17;;;23.80;1.00;;;;;;5106130;27;20496;-79
2022/08/05 03:39:55;;;;;;;8.27;7.57;;;23.80;1.00;;;;;;5106790;27;21007;-79
2022/08/05 03:42:26;;;;;;;8.67;7.67;;;23.80;1.00;;;;;;5119337;27;20443;-77
2022/08/05 03:44:53;;;;;;;16.83;8.57;;;23.90;1.00;;;;;;5122105;27;20587;-80
2022/08/05 03:47:25;;;;;;;8.70;8.00;;;23.90;1.00;;;;;;5127391;27;20548;-83
2022/08/05 03:49:54;;;;;;;11.10;9.60;;;23.90;1.00;;;;;;5125096;27;20827;-82
2022/08/05 03:52:27;;;;;;;8.40;7.70;;;23.90;1.00;;;;;;5128495;27;20526;-84
2022/08/05 03:55:00;;;;;;;7.73;7.13;;;23.90;1.00;;;;;;5121962;27;20539;-79
2022/08/05 03:57:32;;;;;;;8.57;7.87;;;23.90;1.00;;;;;;5127310;27;20555;-80
2022/08/05 04:00:05;;;;;;;8.20;7.40;;;23.90;1.00;;;;;;5124652;27;20448;-84
2022/08/05 04:02:34;;;;;;;10.87;8.63;;;23.90;1.00;;;;;;5125991;27;20545;-83
2022/08/05 04:05:09;;;;;;;9.03;8.13;;;23.90;1.00;;;;;;5122366;27;21036;-80
2022/08/05 04:07:38;;;;;;;10.00;9.10;;;23.90;1.00;;;;;;5132506;27;20449;-84
2022/08/05 04:10:08;;;;;;;8.93;8.10;;;23.90;1.00;;;;;;5125063;27;20433;-83
2022/08/05 04:12:35;;;;;;;9.40;8.60;;;23.90;1.00;;;;;;5126674;27;20469;-79
2022/08/05 04:15:08;;;;;;;9.47;8.40;;;23.90;1.00;;;;;;5130911;27;20420;-83
2022/08/05 04:17:35;;;;;;;7.97;7.37;;;23.90;1.00;;;;;;5128901;27;20964;-76
2022/08/05 04:20:05;;;;;;;9.17;8.20;;;24.00;1.00;;;;;;5126518;27;20445;-84
2022/08/05 04:22:37;;;;;;;8.37;7.67;;;24.00;1.00;;;;;;5130514;27;20533;-83
2022/08/05 04:25:04;;;;;;;9.00;8.10;;;24.00;1.00;;;;;;5129369;27;20464;-83
2022/08/05 04:27:31;;;;;;;13.60;8.80;;;24.00;1.00;;;;;;5128314;27;21011;-82
2022/08/05 04:29:58;;;;;;;9.00;8.13;;;24.00;1.00;;;;;;5124763;27;20476;-77
2022/08/05 04:32:29;;;;;;;25.63;14.00;;;24.10;1.00;;;;;;5128244;27;20425;-82
2022/08/05 04:34:56;;;;;;;11.53;9.20;;;24.20;1.00;;;;;;5127467;27;20495;-81
2022/08/05 04:37:31;;;;;;;41.77;12.10;;;24.20;1.00;;;;;;5126693;27;20410;-84
2022/08/05 04:39:58;;;;;;;10.83;8.23;;;24.20;1.00;;;;;;5125709;27;20473;-84
2022/08/05 04:42:27;;;;;;;13.33;8.90;;;24.30;1.00;;;;;;5124873;27;20425;-80
2022/08/05 04:44:54;;;;;;;11.97;8.63;;;24.30;1.00;;;;;;5127353;27;20905;-84
2022/08/05 04:47:22;;;;;;;9.90;9.00;;;24.40;1.00;;;;;;5129059;27;20983;-83
2022/08/05 04:49:49;;;;;;;8.97;8.17;;;24.50;1.00;;;;;;5130081;27;20469;-80
2022/08/05 04:52:16;;;;;;;14.23;7.83;;;24.50;1.00;;;;;;5128765;27;21472;-80
2022/08/05 04:54:44;;;;;;;8.87;8.17;;;24.60;1.00;;;;;;5127969;27;20456;-79
2022/08/05 04:57:14;;;;;;;8.40;7.57;;;24.70;1.00;;;;;;5123634;27;20446;-83
2022/08/05 04:59:42;;;;;;;9.43;7.70;;;24.70;1.00;;;;;;5126766;27;20461;-84
2022/08/05 05:02:09;;;;;;;17.60;9.17;;;24.80;1.00;;;;;;5123497;27;20488;-81
2022/08/05 05:04:37;;;;;;;14.60;8.50;;;24.80;1.00;;;;;;5133799;27;20431;-78
2022/08/05 05:07:04;;;;;;;15.90;8.13;;;24.90;1.00;;;;;;5125959;27;20481;-84
2022/08/05 05:09:36;;;;;;;8.23;7.50;;;24.90;1.00;;;;;;5132154;27;20469;-83
2022/08/05 05:12:05;;;;;;;9.30;7.50;;;25.00;1.00;;;;;;5129598;27;20920;-77
2022/08/05 05:14:39;;;;;;;8.90;8.00;;;25.10;1.00;;;;;;5128705;27;20453;-78
2022/08/05 05:17:06;;;;;;;8.40;7.80;;;25.10;1.00;;;;;;5128169;27;20883;-84
2022/08/05 05:19:39;;;;;;;9.20;7.60;;;25.10;1.00;;;;;;5124024;27;20434;-77
2022/08/05 05:22:06;;;;;;;10.63;7.17;;;25.20;1.00;;;;;;5111671;27;20468;-80
2022/08/05 05:24:37;;;;;;;7.93;7.10;;;25.20;1.00;;;;;;5119722;27;20416;-78
2022/08/05 05:27:06;;;;;;;7.60;7.00;;;25.30;1.00;;;;;;5120576;27;20530;-83
2022/08/05 05:29:37;;;;;;;7.97;7.27;;;25.40;1.00;;;;;;5126788;27;20441;-78
2022/08/05 05:32:05;;;;;;;11.50;8.13;;;25.50;1.00;;;;;;5121877;27;20444;-79
2022/08/05 05:34:41;;;;;;;10.40;8.80;;;25.60;1.00;;;;;;5123883;27;20460;-82
2022/08/05 05:37:08;;;;;;;7.70;7.03;;;25.60;1.00;;;;;;5113371;27;21259;-79
2022/08/05 05:39:34;;;;;;;7.97;7.37;;;25.70;1.00;;;;;;5120148;27;20448;-83
2022/08/05 05:42:01;;;;;;;7.87;7.17;;;25.80;1.00;;;;;;5129420;27;20463;-82
2022/08/05 05:44:30;;;;;;;7.67;7.07;;;25.90;1.00;;;;;;5129736;27;21010;-83
2022/08/05 05:46:56;;;;;;;7.03;6.43;;;26.00;1.00;;;;;;5135931;27;20465;-82
2022/08/05 05:49:27;;;;;;;15.77;8.00;;;26.00;1.00;;;;;;5129422;27;20451;-77
2022/08/05 05:51:57;;;;;;;7.00;6.50;;;26.00;1.00;;;;;;5128186;27;22077;-79
2022/08/05 05:54:26;;;;;;;8.73;7.90;;;26.00;1.00;;;;;;5126916;27;20421;-79
2022/08/05 05:56:58;;;;;;;7.13;6.63;;;26.00;1.00;;;;;;5091711;27;20415;-78
2022/08/05 05:59:25;;;;;;;8.50;7.83;;;26.00;1.00;;;;;;5112987;27;20469;-80
2022/08/05 06:01:57;;;;;;;7.20;6.67;;;26.10;1.00;;;;;;5132537;27;20524;-81
2022/08/05 06:04:26;;;;;;;8.00;7.30;;;26.20;1.00;;;;;;5125459;27;20576;-79
2022/08/05 06:06:58;;;;;;;7.53;6.90;;;26.30;1.00;;;;;;5130227;27;20412;-78
2022/08/05 06:09:27;;;;;;;7.03;6.50;;;26.10;1.00;;;;;;5142980;27;20503;-82
2022/08/05 06:11:58;;;;;;;8.80;6.80;;;26.00;1.00;;;;;;5134713;27;20496;-82
2022/08/05 06:14:27;;;;;;;7.27;6.67;;;25.90;1.00;;;;;;5127470;27;20543;-80
2022/08/05 06:17:02;;;;;;;8.30;7.60;;;25.90;1.00;;;;;;5130645;27;20486;-80
2022/08/05 06:19:30;;;;;;;8.03;7.33;;;25.90;1.00;;;;;;5131323;27;20464;-79
2022/08/05 06:21:58;;;;;;;8.23;7.33;;;26.10;1.00;;;;;;5130944;27;20437;-82
2022/08/05 06:24:25;;;;;;;8.67;7.03;;;26.20;1.00;;;;;;5119298;27;20532;-79
2022/08/05 06:26:53;;;;;;;12.00;6.70;;;26.20;1.00;;;;;;5136948;27;20463;-81
2022/08/05 06:29:20;;;;;;;6.70;6.20;;;26.20;1.00;;;;;;5119678;27;20484;-80
2022/08/05 06:31:47;;;;;;;8.77;6.40;;;26.10;1.00;;;;;;5130142;27;20448;-78
2022/08/05 06:34:18;;;;;;;6.80;6.20;;;26.00;1.00;;;;;;5129690;27;20445;-80
2022/08/05 06:36:45;;;;;;;7.10;6.20;;;26.00;1.00;;;;;;5134598;27;20468;-81
2022/08/05 06:39:14;;;;;;;6.00;5.50;;;26.00;1.00;;;;;;5126956;27;20444;-81
2022/08/05 06:41:43;;;;;;;5.90;5.40;;;26.00;1.00;;;;;;5133523;27;20869;-81
2022/08/05 06:44:10;;;;;;;7.83;6.33;;;25.90;1.00;;;;;;5117242;27;20544;-80
2022/08/05 06:46:38;;;;;;;5.67;5.17;;;25.90;1.00;;;;;;5140256;27;20433;-81
2022/08/05 06:49:05;;;;;;;5.33;4.67;;;26.10;1.00;;;;;;5130246;27;20430;-82
2022/08/05 06:51:40;;;;;;;6.60;5.63;;;26.20;1.00;;;;;;5115312;27;20456;-82
2022/08/05 06:54:08;;;;;;;6.67;6.07;;;26.40;1.00;;;;;;5128096;27;20525;-81
2022/08/05 06:56:38;;;;;;;5.47;4.60;;;26.70;1.00;;;;;;5133352;27;20402;-82
2022/08/05 06:59:06;;;;;;;5.53;5.00;;;27.00;1.00;;;;;;5130372;27;20570;-84
2022/08/05 07:01:38;;;;;;;5.53;4.60;;;27.20;1.00;;;;;;5118974;27;20447;-80
2022/08/05 07:04:05;;;;;;;6.80;5.33;;;27.20;1.00;;;;;;5116732;27;21259;-80
2022/08/05 07:06:43;;;;;;;5.43;4.67;;;27.30;1.00;;;;;;5119166;27;20684;-79
2022/08/05 07:09:10;;;;;;;6.13;4.50;;;27.40;1.00;;;;;;5128489;27;20461;-79
2022/08/05 07:11:38;;;;;;;4.67;4.27;;;27.60;1.00;;;;;;5130448;27;20468;-82
2022/08/05 07:16:50;;;;;;;4.83;4.20;;;27.90;1.00;;;;;;5130354;27;20953;-78
2022/08/05 07:19:20;;;;;;;5.27;4.40;;;28.00;1.00;;;;;;5116655;27;20459;-79
2022/08/05 07:21:49;;;;;;;4.97;4.40;;;28.10;1.00;;;;;;5124853;27;20448;-81
2022/08/05 07:24:21;;;;;;;4.10;3.80;;;28.20;1.00;;;;;;5123011;27;20441;-83
2022/08/05 07:26:48;;;;;;;3.87;3.57;;;28.30;1.00;;;;;;5132090;27;20453;-82
2022/08/05 07:29:19;;;;;;;7.77;4.27;;;28.50;1.00;;;;;;5127310;27;20493;-83
2022/08/05 07:31:45;;;;;;;9.63;4.50;;;28.50;1.00;;;;;;5131487;27;20968;-83
2022/08/05 07:34:17;;;;;;;4.50;4.03;;;28.40;1.00;;;;;;5120495;27;20481;-79
2022/08/05 07:36:44;;;;;;;4.20;3.90;;;28.10;1.00;;;;;;5129768;27;20478;-79
2022/08/05 07:39:17;;;;;;;4.97;4.23;;;28.10;1.00;;;;;;5127222;27;20464;-78
2022/08/05 07:41:44;;;;;;;4.73;4.33;;;28.10;1.00;;;;;;5126953;27;20476;-78
2022/08/05 07:44:11;;;;;;;4.73;4.20;;;28.30;1.00;;;;;;5129007;27;20467;-80
2022/08/05 07:46:39;;;;;;;5.40;4.90;;;28.40;1.00;;;;;;5119045;27;20418;-78
2022/08/05 07:49:05;;;;;;;5.77;5.00;;;28.40;1.00;;;;;;5121538;27;20491;-79
2022/08/05 07:51:38;;;;;;;7.53;4.20;;;28.40;1.00;;;;;;5126282;27;21060;-81
2022/08/05 07:54:06;;;;;;;5.40;4.07;;;28.30;1.00;;;;;;5129130;27;20472;-82
2022/08/05 07:56:42;;;;;;;3.70;3.40;;;28.40;1.00;;;;;;5130025;27;20466;-83
2022/08/05 07:59:08;;;;;;;6.20;3.10;;;28.30;1.00;;;;;;5116515;27;20461;-81
2022/08/05 08:01:38;;;;;;;6.43;3.90;;;28.30;1.00;;;;;;5127267;27;20436;-82
2022/08/05 08:04:05;;;;;;;7.33;3.87;;;28.30;1.00;;;;;;5127838;27;20461;-85
2022/08/05 08:06:36;;;;;;;12.70;4.80;;;28.30;1.00;;;;;;5125400;27;20465;-86
2022/08/05 08:09:05;;;;;;;4.80;3.80;;;28.30;1.00;;;;;;5119442;27;20510;-85
2022/08/05 08:11:38;;;;;;;4.00;3.70;;;28.20;1.00;;;;;;5121293;27;20477;-85
2022/08/05 08:14:05;;;;;;;3.97;3.53;;;28.20;1.00;;;;;;5109297;27;20472;-82
2022/08/05 08:16:32;;;;;;;5.33;4.10;;;27.90;1.00;;;;;;5127821;27;20525;-80
2022/08/05 08:18:58;;;;;;;7.33;4.37;;;27.70;1.00;;;;;;5126868;27;20463;-80
2022/08/05 08:21:25;;;;;;;7.37;4.40;;;27.50;1.00;;;;;;5131862;27;20983;-81
2022/08/05 08:23:58;;;;;;;5.30;4.10;;;27.40;1.00;;;;;;5127364;27;20497;-82
2022/08/05 08:26:24;;;;;;;4.80;3.43;;;27.40;1.00;;;;;;5133801;27;20465;-81
2022/08/05 08:28:57;;;;;;;4.83;4.33;;;27.50;1.00;;;;;;5130657;27;20548;-84
2022/08/05 08:31:24;;;;;;;7.90;4.10;;;27.70;1.00;;;;;;5134544;27;20533;-82
2022/08/05 08:33:50;;;;;;;7.30;3.77;;;27.90;1.00;;;;;;5133073;27;20425;-82
2022/08/05 08:36:19;;;;;;;5.07;3.67;;;28.10;1.00;;;;;;5118880;27;20485;-81
2022/08/05 08:38:47;;;;;;;6.77;3.67;;;28.10;1.00;;;;;;5119229;27;21056;-79
2022/08/05 08:41:19;;;;;;;4.33;3.47;;;28.00;1.00;;;;;;5113589;27;20540;-81
2022/08/05 08:43:47;;;;;;;3.37;3.17;;;28.00;1.00;;;;;;5122993;27;20464;-81
2022/08/05 08:46:20;;;;;;;10.43;6.00;;;27.80;1.00;;;;;;5125870;27;20445;-81
2022/08/05 08:48:50;;;;;;;4.17;3.70;;;27.60;1.00;;;;;;5117367;27;20942;-78
2022/08/05 08:51:19;;;;;;;5.40;3.00;;;27.50;1.00;;;;;;5126275;27;20482;-82
2022/08/05 08:53:46;;;;;;;4.37;3.53;;;27.50;1.00;;;;;;5130299;27;20461;-83
2022/08/05 08:56:28;;;;;;;3.43;3.13;;;27.40;1.00;;;;;;5130667;27;20455;-79
2022/08/05 08:58:59;;;;;;;9.97;4.07;;;27.30;1.00;;;;;;5121266;27;20417;-86
2022/08/05 09:01:28;;;;;;;9.37;3.80;;;27.30;1.00;;;;;;5117125;27;20494;-79
2022/08/05 09:03:59;;;;;;;5.03;3.30;;;27.20;1.00;;;;;;5129214;27;20417;-81
2022/08/05 09:06:30;;;;;;;8.93;4.30;;;27.10;1.00;;;;;;5127888;27;20413;-78
2022/08/05 09:09:00;;;;;;;4.50;3.73;;;26.80;1.00;;;;;;5133279;27;20434;-85
2022/08/05 09:11:28;;;;;;;4.27;3.67;;;26.40;1.00;;;;;;5121305;27;20459;-85
2022/08/05 09:14:01;;;;;;;5.17;3.77;;;26.20;1.00;;;;;;5123959;27;20426;-80
2022/08/05 09:16:30;;;;;;;10.03;4.10;;;26.00;1.00;;;;;;5129805;27;20440;-81
2022/08/05 09:19:00;;;;;;;4.53;3.73;;;26.10;1.00;;;;;;5129039;27;20470;-82
2022/08/05 09:21:28;;;;;;;3.73;3.33;;;26.30;1.00;;;;;;5129757;27;20890;-84
2022/08/05 09:24:08;;;;;;;11.17;5.63;;;26.50;1.00;;;;;;5131581;27;20431;-85
2022/08/05 09:26:39;;;;;;;6.37;3.00;;;26.60;1.00;;;;;;5121101;27;20392;-81
2022/08/05 09:29:07;;;;;;;5.43;4.43;;;26.70;1.00;;;;;;5125217;27;20536;-81
2022/08/05 09:31:42;;;;;;;5.67;5.03;;;26.90;1.00;;;;;;5128455;27;20425;-85
2022/08/05 09:34:10;;;;;;;8.60;4.30;;;27.10;1.00;;;;;;5128510;27;20484;-78
2022/08/05 09:36:45;;;;;;;5.20;3.60;;;27.20;1.00;;;;;;5126505;27;20437;-83
2022/08/05 09:39:18;;;;;;;4.43;4.10;;;27.40;1.00;;;;;;5112802;27;20471;-82
2022/08/05 09:42:02;;;;;;;4.73;3.67;;;27.60;1.00;;;;;;5126683;27;20481;-83
2022/08/05 09:44:44;;;;;;;6.47;4.33;;;27.90;1.00;;;;;;5121459;27;21053;-80
2022/08/05 09:47:20;;;;;;;6.03;4.00;;;27.90;1.00;;;;;;5096406;27;20437;-83
2022/08/05 09:49:50;;;;;;;3.50;3.00;;;27.90;1.00;;;;;;5127199;27;20478;-85
2022/08/05 09:52:21;;;;;;;4.77;3.30;;;27.80;1.00;;;;;;5129557;27;20420;-82
2022/08/05 09:55:08;;;;;;;6.43;4.30;;;27.70;1.00;;;;;;5104491;27;20514;-80
2022/08/05 09:57:40;;;;;;;3.73;3.40;;;27.60;1.00;;;;;;5116919;27;20405;-82
2022/08/05 10:00:11;;;;;;;4.80;4.13;;;27.30;1.00;;;;;;5113780;27;20461;-84
2022/08/05 10:02:43;;;;;;;3.73;3.23;;;27.10;1.00;;;;;;5131791;27;20397;-80
2022/08/05 10:05:12;;;;;;;4.37;3.50;;;26.80;1.00;;;;;;5125817;27;20467;-85
2022/08/05 10:07:45;;;;;;;3.70;3.37;;;26.70;1.00;;;;;;5134356;27;20504;-83
2022/08/05 10:10:17;;;;;;;5.30;3.90;;;26.60;1.00;;;;;;5108308;27;20465;-81
2022/08/05 10:12:46;;;;;;;9.03;4.00;;;26.60;1.00;;;;;;5140970;27;20441;-81
2022/08/05 10:15:25;;;;;;;4.60;4.20;;;26.40;1.00;;;;;;5128977;27;20521;-87
2022/08/05 10:18:21;;;;;;;6.50;5.00;;;26.10;1.00;;;;;;5120370;27;20449;-85
2022/08/05 10:20:50;;;;;;;4.33;3.93;;;25.80;1.00;;;;;;5122772;27;20483;-82
2022/08/05 10:23:19;;;;;;;5.37;4.10;;;25.50;1.00;;;;;;5122120;27;20446;-86
2022/08/05 10:25:50;;;;;;;5.40;4.40;;;25.20;1.00;;;;;;5137429;27;20417;-82
2022/08/05 10:28:17;;;;;;;4.93;3.67;;;24.90;1.00;;;;;;5125563;27;20461;-82
2022/08/05 10:31:00;;;;;;;4.83;4.43;;;25.10;1.00;;;;;;5133153;27;20505;-86
2022/08/05 10:33:30;;;;;;;4.73;4.33;;;25.70;1.00;;;;;;5115891;27;20461;-83
2022/08/05 10:36:02;;;;;;;5.50;3.63;;;26.70;1.00;;;;;;5137113;27;20450;-86
2022/08/05 10:38:40;;;;;;;5.60;3.70;;;26.90;1.00;;;;;;5137947;27;20449;-82
2022/08/05 10:41:20;;;;;;;5.53;5.10;;;27.00;1.00;;;;;;5131668;27;20446;-81
2022/08/05 10:43:51;;;;;;;7.27;5.00;;;26.90;1.00;;;;;;5117212;27;20422;-80
2022/08/05 10:46:21;;;;;;;7.63;4.83;;;26.70;1.00;;;;;;5130350;27;20439;-81
2022/08/05 10:48:50;;;;;;;5.87;4.43;;;26.10;1.00;;;;;;5124781;27;20506;-81
2022/08/05 10:51:21;;;;;;;6.60;4.33;;;25.60;1.00;;;;;;5121642;27;20433;-85
2022/08/05 10:54:03;;;;;;;7.40;4.40;;;25.00;1.00;;;;;;5115956;27;21006;-79
2022/08/05 10:56:46;;;;;;;5.03;4.53;;;24.50;1.00;;;;;;5132724;27;20457;-86
2022/08/05 10:59:31;;;;;;;10.40;6.60;;;24.20;1.00;;;;;;5133707;27;20450;-81
2022/08/05 11:02:13;;;;;;;8.10;6.10;;;23.90;1.00;;;;;;5133491;27;20428;-86
2022/08/05 11:04:59;;;;;;;8.33;7.60;;;23.70;1.00;;;;;;5125016;27;20457;-82
2022/08/05 11:07:33;;;;;;;11.60;10.43;;;23.60;1.00;;;;;;5128940;27;20433;-84
2022/08/05 11:10:02;;;;;;;6.53;5.90;;;23.60;1.00;;;;;;5116479;27;20540;-82
2022/08/05 11:12:47;;;;;;;10.50;6.30;;;23.50;1.00;;;;;;5131061;27;20473;-83
2022/08/05 11:15:21;;;;;;;6.90;6.20;;;23.50;1.00;;;;;;5109545;27;20473;-81
2022/08/05 11:17:49;;;;;;;6.00;5.50;;;23.40;1.00;;;;;;5135433;27;20492;-80
2022/08/05 11:20:39;;;;;;;6.50;6.00;;;23.70;1.00;;;;;;5131919;27;20420;-86
2022/08/05 11:23:29;;;;;;;5.50;5.00;;;24.50;1.00;;;;;;5129757;27;20812;-83
2022/08/05 11:26:07;;;;;;;6.63;5.00;;;26.30;1.00;;;;;;5130566;27;20456;-86
2022/08/05 11:28:51;;;;;;;6.30;5.70;;;28.50;1.00;;;;;;5120351;27;20443;-86
2022/08/05 11:31:29;;;;;;;3.30;3.00;;;31.50;1.00;;;;;;5130612;27;20907;-86
2022/08/05 11:34:01;;;;;;;4.00;3.20;;;33.70;1.00;;;;;;5121367;27;20443;-82
2022/08/05 11:39:51;;;;;;;4.70;3.47;;;36.10;1.00;;;;;;5099461;27;20492;-86
2022/08/05 11:46:00;;;;;;;4.67;2.53;;;36.80;1.00;;;;;;5098737;27;22174;-83
2022/08/05 11:48:30;;;;;;;3.00;2.80;;;35.30;1.00;;;;;;5082977;28;20422;-82
2022/08/05 11:51:12;;;;;;;3.60;3.40;;;34.30;1.00;;;;;;5089277;27;20465;-81
2022/08/05 11:53:51;;;;;;;5.43;4.37;;;34.10;1.00;;;;;;5112130;27;20452;-83
2022/08/05 11:56:20;;;;;;;2.60;2.40;;;35.70;1.00;;;;;;5127373;27;20445;-80
2022/08/05 11:58:49;;;;;;;2.90;2.60;;;37.50;1.00;;;;;;5134886;27;20468;-84
2022/08/05 12:01:23;;;;;;;3.13;2.70;;;38.10;1.00;;;;;;5127299;27;20591;-86
2022/08/05 12:03:53;;;;;;;2.97;2.67;;;39.30;1.00;;;;;;5121189;27;20465;-81
2022/08/05 12:06:25;;;;;;;3.13;2.90;;;40.30;1.00;;;;;;5134032;27;20464;-84
2022/08/05 12:08:59;;;;;;;4.73;2.90;;;39.90;1.00;;;;;;5133817;27;20491;-85
2022/08/05 12:11:29;;;;;;;4.00;3.63;;;39.80;1.00;;;;;;5131310;27;20465;-84
2022/08/05 12:14:07;;;;;;;3.20;2.87;;;39.60;1.00;;;;;;5131666;27;20422;-84
2022/08/05 12:16:39;;;;;;;4.73;3.40;;;38.60;1.00;;;;;;5116754;27;20560;-86
2022/08/05 12:19:11;;;;;;;4.67;3.33;;;37.80;1.00;;;;;;5122984;27;20518;-82
2022/08/05 12:21:46;;;;;;;3.23;2.93;;;38.10;1.00;;;;;;5118688;27;20418;-86
2022/08/05 12:24:20;;;;;;;4.03;3.43;;;37.80;1.00;;;;;;5119556;27;20456;-86
2022/08/05 12:26:51;;;;;;;3.57;3.37;;;37.30;1.00;;;;;;5108801;28;20480;-82
2022/08/05 12:29:26;;;;;;;3.93;3.63;;;37.80;1.00;;;;;;5107475;27;20426;-86
2022/08/05 12:31:59;;;;;;;3.60;3.30;;;38.50;1.00;;;;;;5097119;27;20430;-82
2022/08/05 12:34:38;;;;;;;2.73;2.63;;;39.70;1.00;;;;;;5100060;27;20478;-86
2022/08/05 12:37:11;;;;;;;3.83;3.00;;;40.30;1.00;;;;;;5085788;27;20434;-82
2022/08/05 12:39:51;;;;;;;3.70;3.40;;;40.90;1.00;;;;;;5089032;28;20431;-82
2022/08/05 12:42:21;;;;;;;3.63;3.43;;;41.80;1.00;;;;;;5090287;27;20434;-86
2022/08/05 12:45:01;;;;;;;3.70;3.40;;;42.00;1.00;;;;;;5112635;27;20428;-87
2022/08/05 12:47:31;;;;;;;4.33;3.50;;;42.50;1.00;;;;;;5107682;27;21371;-82
2022/08/05 12:50:12;;;;;;;5.50;3.93;;;42.70;1.00;;;;;;5106487;27;20537;-82
2022/08/05 12:52:40;;;;;;;4.23;3.83;;;43.10;1.00;;;;;;5114673;28;20449;-85
2022/08/05 12:55:29;;;;;;;3.43;3.13;;;43.30;1.00;;;;;;5111523;28;20454;-81
2022/08/05 12:58:00;;;;;;;3.57;3.37;;;42.40;1.00;;;;;;5110927;28;20449;-81
2022/08/05 13:00:28;;;;;;;4.90;3.60;;;40.70;1.00;;;;;;5111906;28;20438;-82
2022/08/05 13:03:01;;;;;;;6.83;4.00;;;40.60;1.00;;;;;;5118387;27;20456;-82
2022/08/05 13:05:30;;;;;;;4.30;3.93;;;40.00;1.00;;;;;;5114576;27;20469;-84
2022/08/05 13:07:59;;;;;;;4.40;3.63;;;38.80;1.00;;;;;;5103317;27;20500;-85
2022/08/05 13:10:31;;;;;;;4.07;3.60;;;37.70;1.00;;;;;;5101537;27;20458;-83
2022/08/05 13:12:59;;;;;;;4.30;4.00;;;37.00;1.00;;;;;;5115033;28;20470;-85
2022/08/05 13:15:31;;;;;;;6.00;5.43;;;36.20;1.00;;;;;;5100749;27;20457;-81
2022/08/05 13:18:00;;;;;;;3.80;3.50;;;35.40;1.00;;;;;;5113455;28;20480;-82
2022/08/05 13:20:38;;;;;;;4.03;3.73;;;34.80;1.00;;;;;;5116926;27;20540;-85
2022/08/05 13:23:05;;;;;;;4.43;4.03;;;34.30;1.00;;;;;;5106139;27;20517;-86
2022/08/05 13:25:36;;;;;;;3.97;3.60;;;34.00;1.00;;;;;;5118886;27;20831;-82